Time;durP1;ratioP1;P1;durP2;ratioP2;P2;SDS_P1;SDS_P2;PMS_P1;PMS_P2;Temp;Humidity;BMP_temperature;BMP_pressure;BME280_temperature;BME280_humidity;BME280_pressure;Samples;Min_cycle;Max_cycle;Signal;HPM_P1;HPM_P2
2022/05/19 00:02:05;;;;;;;0.77;0.60;;;16.40;99.90;;;;;;5068701;28;20049;-80
2022/05/19 00:04:33;;;;;;;0.73;0.60;;;16.40;99.90;;;;;;5069128;28;20498;-80
2022/05/19 00:06:59;;;;;;;1.75;1.05;;;16.40;99.90;;;;;;5068581;28;20033;-81
2022/05/19 00:09:27;;;;;;;1.65;0.90;;;16.30;99.90;;;;;;5068951;28;20037;-80
2022/05/19 00:11:55;;;;;;;0.93;0.60;;;16.30;99.90;;;;;;5052061;28;20120;-81
2022/05/19 00:14:22;;;;;;;1.00;0.60;;;16.20;99.90;;;;;;5052335;28;20175;-80
2022/05/19 00:16:49;;;;;;;0.88;0.70;;;16.20;99.90;;;;;;5035756;28;20036;-81
2022/05/19 00:19:18;;;;;;;0.75;0.50;;;16.20;99.90;;;;;;5036000;28;20051;-80
2022/05/19 00:21:44;;;;;;;1.27;0.80;;;16.20;99.90;;;;;;5052266;28;20124;-80
2022/05/19 00:24:11;;;;;;;0.98;0.60;;;16.20;99.90;;;;;;5036163;28;20489;-80
2022/05/19 00:26:38;;;;;;;0.70;0.55;;;16.20;99.90;;;;;;5035577;28;20041;-80
2022/05/19 00:29:04;;;;;;;0.65;0.50;;;16.10;99.90;;;;;;5053389;28;20060;-81
2022/05/19 00:31:32;;;;;;;0.50;0.50;;;16.20;99.90;;;;;;5052505;28;20123;-81
2022/05/19 00:34:00;;;;;;;1.27;0.75;;;16.20;99.90;;;;;;5071217;28;20044;-80
2022/05/19 00:36:27;;;;;;;0.73;0.63;;;16.20;99.90;;;;;;5056512;28;20504;-80
2022/05/19 00:38:53;;;;;;;1.13;0.73;;;16.10;99.90;;;;;;5055511;28;20040;-80
2022/05/19 00:41:21;;;;;;;0.88;0.63;;;16.10;99.90;;;;;;5055963;28;20033;-80
2022/05/19 00:44:01;;;;;;;0.95;0.70;;;16.10;99.90;;;;;;5055558;28;20044;-80
2022/05/19 00:46:51;;;;;;;0.95;0.75;;;16.10;99.90;;;;;;5071877;28;20061;-81
2022/05/19 00:49:25;;;;;;;0.68;0.68;;;16.20;99.90;;;;;;5072000;28;20041;-81
2022/05/19 00:52:00;;;;;;;1.77;0.98;;;16.20;99.90;;;;;;5071991;28;20500;-80
2022/05/19 00:54:35;;;;;;;1.27;0.70;;;16.20;99.90;;;;;;5072629;28;20478;-81
2022/05/19 00:57:11;;;;;;;2.53;0.75;;;16.30;99.90;;;;;;5071765;28;20045;-80
2022/05/19 00:59:48;;;;;;;0.77;0.60;;;16.30;99.90;;;;;;5073807;28;20040;-80
2022/05/19 01:02:19;;;;;;;0.60;0.40;;;16.30;99.90;;;;;;5092389;28;20052;-80
2022/05/19 01:04:53;;;;;;;1.38;0.68;;;16.30;99.90;;;;;;5091593;28;20040;-80
2022/05/19 01:07:28;;;;;;;1.33;0.73;;;16.30;99.90;;;;;;5071736;28;20154;-81
2022/05/19 01:09:57;;;;;;;0.80;0.60;;;16.30;99.90;;;;;;5054936;28;20045;-80
2022/05/19 01:12:26;;;;;;;1.15;0.60;;;16.30;99.90;;;;;;5039329;28;20128;-80
2022/05/19 01:14:52;;;;;;;1.00;0.77;;;16.30;99.90;;;;;;5071800;28;20088;-81
2022/05/19 01:17:19;;;;;;;1.25;0.73;;;16.30;99.90;;;;;;5039949;28;20524;-81
2022/05/19 01:19:51;;;;;;;1.02;0.73;;;16.30;99.90;;;;;;5054961;28;20049;-80
2022/05/19 01:22:37;;;;;;;0.70;0.60;;;16.30;99.90;;;;;;5071928;28;20088;-81
2022/05/19 01:25:22;;;;;;;1.35;0.88;;;16.30;99.90;;;;;;5071480;28;20045;-80
2022/05/19 01:27:49;;;;;;;1.42;0.60;;;16.30;99.90;;;;;;5054341;28;20110;-80
2022/05/19 01:30:16;;;;;;;1.08;0.60;;;16.20;99.90;;;;;;5055301;28;20130;-80
2022/05/19 01:32:43;;;;;;;0.60;0.45;;;16.30;99.90;;;;;;5072044;28;20481;-80
2022/05/19 01:35:10;;;;;;;0.60;0.55;;;16.20;99.90;;;;;;5071279;28;20501;-81
2022/05/19 01:37:36;;;;;;;1.15;0.65;;;16.20;99.90;;;;;;5075137;28;20051;-80
2022/05/19 01:40:18;;;;;;;0.80;0.60;;;16.10;99.90;;;;;;5071393;28;20104;-81
2022/05/19 01:43:10;;;;;;;0.50;0.50;;;16.10;99.90;;;;;;5054869;28;20090;-80
2022/05/19 01:45:57;;;;;;;0.93;0.50;;;16.10;99.90;;;;;;5054005;28;20166;-80
2022/05/19 01:48:24;;;;;;;1.00;0.50;;;16.00;99.90;;;;;;5055036;28;20029;-81
2022/05/19 01:51:00;;;;;;;2.13;1.10;;;16.00;99.90;;;;;;5070751;28;20502;-80
2022/05/19 01:53:49;;;;;;;1.15;0.70;;;15.90;99.90;;;;;;5054881;28;20053;-80
2022/05/19 01:56:48;;;;;;;1.17;0.65;;;15.90;99.90;;;;;;5054925;28;20041;-80
2022/05/19 01:59:28;;;;;;;1.10;0.82;;;15.90;99.90;;;;;;5086036;28;20048;-81
2022/05/19 02:02:12;;;;;;;1.10;0.75;;;15.90;99.90;;;;;;5087619;28;20044;-80
2022/05/19 02:04:51;;;;;;;1.58;0.95;;;15.80;99.90;;;;;;5071314;28;20063;-81
2022/05/19 02:07:19;;;;;;;1.17;0.75;;;15.80;99.90;;;;;;5084275;28;20036;-80
2022/05/19 02:09:57;;;;;;;1.55;0.80;;;15.70;99.90;;;;;;5056110;28;20163;-80
2022/05/19 02:12:24;;;;;;;0.70;0.55;;;15.70;99.90;;;;;;5081301;28;20059;-82
2022/05/19 02:14:57;;;;;;;1.27;0.60;;;15.70;99.90;;;;;;5054292;28;20731;-81
2022/05/19 02:17:27;;;;;;;0.82;0.50;;;15.70;99.90;;;;;;5070834;28;20410;-81
2022/05/19 02:19:59;;;;;;;1.63;0.98;;;15.70;99.90;;;;;;5070181;28;20457;-80
2022/05/19 02:22:33;;;;;;;0.80;0.47;;;15.70;99.90;;;;;;5070498;28;20049;-80
2022/05/19 02:25:36;;;;;;;2.08;0.80;;;15.60;99.90;;;;;;5053822;28;20504;-81
2022/05/19 02:28:08;;;;;;;0.98;0.63;;;15.50;99.90;;;;;;5060136;28;20513;-81
2022/05/19 02:30:37;;;;;;;0.75;0.73;;;15.10;99.90;;;;;;5054137;28;20160;-81
2022/05/19 02:33:06;;;;;;;1.23;0.68;;;15.50;99.90;;;;;;5053481;28;20390;-80
2022/05/19 02:35:33;;;;;;;0.47;0.47;;;15.40;99.90;;;;;;5065238;28;20071;-80
2022/05/19 02:38:00;;;;;;;0.43;0.43;;;15.40;99.90;;;;;;5073748;28;20570;-81
2022/05/19 02:40:30;;;;;;;0.73;0.60;;;15.30;99.90;;;;;;5057817;28;20037;-80
2022/05/19 02:42:58;;;;;;;0.60;0.50;;;15.30;99.90;;;;;;5089905;28;20048;-80
2022/05/19 02:45:25;;;;;;;1.02;0.65;;;15.30;99.90;;;;;;5066079;28;20040;-80
2022/05/19 02:47:52;;;;;;;0.80;0.70;;;15.30;99.90;;;;;;5069997;28;20128;-79
2022/05/19 02:50:20;;;;;;;1.25;0.93;;;15.30;99.90;;;;;;5070067;28;20124;-80
2022/05/19 02:52:48;;;;;;;0.65;0.50;;;15.30;99.90;;;;;;5070469;28;20037;-80
2022/05/19 02:55:15;;;;;;;0.68;0.47;;;15.30;99.90;;;;;;5053566;28;20037;-79
2022/05/19 02:57:42;;;;;;;0.90;0.70;;;15.30;99.90;;;;;;5069712;28;20040;-80
2022/05/19 03:00:12;;;;;;;0.50;0.43;;;15.30;99.90;;;;;;5069814;28;20080;-80
2022/05/19 03:02:40;;;;;;;1.10;0.70;;;15.30;99.90;;;;;;5070593;28;20126;-81
2022/05/19 03:05:09;;;;;;;0.95;0.63;;;15.30;99.90;;;;;;5037157;28;20079;-81
2022/05/19 03:07:36;;;;;;;1.13;0.70;;;15.20;99.90;;;;;;5086535;28;20036;-80
2022/05/19 03:10:04;;;;;;;1.25;0.68;;;15.30;99.90;;;;;;5056088;28;20036;-80
2022/05/19 03:12:31;;;;;;;1.20;0.57;;;15.20;99.90;;;;;;5073545;28;20040;-81
2022/05/19 03:14:58;;;;;;;0.95;0.68;;;15.20;99.90;;;;;;5089560;28;20404;-80
2022/05/19 03:17:25;;;;;;;1.05;0.68;;;15.20;99.90;;;;;;5040513;28;20131;-80
2022/05/19 03:19:53;;;;;;;0.90;0.70;;;15.20;99.90;;;;;;5073794;28;20065;-80
2022/05/19 03:22:20;;;;;;;1.70;0.77;;;15.20;99.90;;;;;;5053124;28;20049;-80
2022/05/19 03:24:47;;;;;;;0.73;0.57;;;15.20;99.90;;;;;;5069048;28;20136;-80
2022/05/19 03:27:14;;;;;;;0.95;0.57;;;15.20;99.90;;;;;;5067574;28;20083;-80
2022/05/19 03:29:41;;;;;;;0.70;0.60;;;15.30;99.90;;;;;;5072597;28;20079;-80
2022/05/19 03:32:08;;;;;;;1.02;0.70;;;15.30;99.90;;;;;;5072201;28;20123;-80
2022/05/19 03:34:34;;;;;;;1.52;0.85;;;15.30;99.90;;;;;;5072233;28;20083;-80
2022/05/19 03:37:05;;;;;;;1.15;0.60;;;15.30;99.90;;;;;;5069147;28;20045;-80
2022/05/19 03:39:33;;;;;;;1.27;0.77;;;15.30;99.90;;;;;;5069263;28;20076;-80
2022/05/19 03:42:00;;;;;;;0.70;0.60;;;15.30;99.90;;;;;;5052510;28;20044;-80
2022/05/19 03:44:27;;;;;;;1.17;0.63;;;15.40;99.90;;;;;;5036104;28;20048;-81
2022/05/19 03:46:53;;;;;;;0.85;0.70;;;15.40;99.90;;;;;;5047021;28;20044;-80
2022/05/19 03:49:20;;;;;;;0.80;0.57;;;15.40;99.90;;;;;;5019806;28;20490;-80
2022/05/19 03:51:47;;;;;;;1.00;0.70;;;15.40;99.90;;;;;;5077676;28;20049;-81
2022/05/19 03:54:13;;;;;;;1.67;0.90;;;15.40;99.90;;;;;;5072122;28;20033;-81
2022/05/19 03:56:40;;;;;;;1.10;0.60;;;15.50;99.90;;;;;;5068713;28;20045;-80
2022/05/19 03:59:07;;;;;;;1.10;0.60;;;15.40;99.90;;;;;;5068907;28;20059;-80
2022/05/19 04:01:35;;;;;;;1.45;1.17;;;15.50;99.90;;;;;;5052295;28;20041;-79
2022/05/19 04:04:02;;;;;;;2.13;1.05;;;15.50;99.90;;;;;;5052614;28;20037;-81
2022/05/19 04:06:29;;;;;;;1.13;0.70;;;15.50;99.90;;;;;;5036075;28;20065;-80
2022/05/19 04:08:56;;;;;;;1.73;0.88;;;15.60;99.90;;;;;;5055230;28;20048;-80
2022/05/19 04:11:23;;;;;;;1.25;0.77;;;15.60;99.90;;;;;;5056355;28;20033;-81
2022/05/19 04:13:50;;;;;;;1.08;0.68;;;15.60;99.90;;;;;;5056628;28;20146;-81
2022/05/19 04:16:17;;;;;;;1.20;0.80;;;15.60;99.90;;;;;;5072912;28;20099;-80
2022/05/19 04:18:43;;;;;;;1.42;0.80;;;15.60;99.90;;;;;;5072940;28;20044;-81
2022/05/19 04:21:11;;;;;;;1.55;0.98;;;15.60;99.90;;;;;;5056278;28;20051;-80
2022/05/19 04:23:37;;;;;;;0.50;0.50;;;15.60;99.90;;;;;;5056703;28;20041;-80
2022/05/19 04:26:04;;;;;;;0.98;0.77;;;15.60;99.90;;;;;;5074757;28;20405;-80
2022/05/19 04:28:32;;;;;;;1.70;0.85;;;15.70;99.90;;;;;;5075601;28;20118;-81
2022/05/19 04:31:00;;;;;;;1.30;0.90;;;15.70;99.90;;;;;;5061962;28;20059;-81
2022/05/19 04:33:28;;;;;;;0.93;0.60;;;15.70;99.90;;;;;;5072090;28;20079;-80
2022/05/19 04:35:54;;;;;;;1.05;0.75;;;15.70;99.90;;;;;;5072871;28;20044;-80
2022/05/19 04:38:22;;;;;;;1.30;0.70;;;15.70;99.90;;;;;;5057087;28;20510;-81
2022/05/19 04:40:49;;;;;;;0.57;0.45;;;15.70;99.90;;;;;;5039599;28;20041;-81
2022/05/19 04:43:24;;;;;;;0.82;0.65;;;15.70;99.90;;;;;;5055734;28;20048;-80
2022/05/19 04:45:52;;;;;;;0.80;0.60;;;15.70;99.90;;;;;;5056072;28;20049;-81
2022/05/19 04:48:20;;;;;;;0.82;0.47;;;15.70;99.90;;;;;;5076282;28;20041;-80
2022/05/19 04:50:55;;;;;;;0.57;0.43;;;15.70;99.90;;;;;;5092049;28;20040;-81
2022/05/19 04:53:21;;;;;;;0.75;0.65;;;15.80;99.90;;;;;;5075467;28;20401;-80
2022/05/19 04:55:48;;;;;;;1.70;0.80;;;15.80;99.90;;;;;;5076039;28;20044;-80
2022/05/19 04:58:16;;;;;;;1.08;0.60;;;15.90;99.90;;;;;;5074945;28;20485;-81
2022/05/19 05:00:45;;;;;;;1.55;0.90;;;15.90;99.90;;;;;;5059128;28;20045;-80
2022/05/19 05:03:12;;;;;;;1.17;0.93;;;16.00;99.90;;;;;;5091682;28;20494;-80
2022/05/19 05:05:39;;;;;;;0.93;0.55;;;16.10;99.90;;;;;;5075667;28;20055;-80
2022/05/19 05:08:06;;;;;;;1.60;0.95;;;16.20;99.90;;;;;;5072261;28;21600;-80
2022/05/19 05:10:32;;;;;;;0.95;0.75;;;16.30;99.90;;;;;;5090002;28;20076;-81
2022/05/19 05:13:07;;;;;;;1.23;0.98;;;16.40;99.90;;;;;;5074832;28;20123;-80
2022/05/19 05:15:34;;;;;;;2.38;0.90;;;16.50;99.90;;;;;;5075110;28;20111;-81
2022/05/19 05:18:01;;;;;;;1.30;0.88;;;16.70;99.90;;;;;;5075393;28;20037;-81
2022/05/19 05:20:28;;;;;;;1.23;0.95;;;16.80;99.90;;;;;;5074716;28;20051;-80
2022/05/19 05:22:54;;;;;;;1.73;0.82;;;16.80;99.90;;;;;;5074651;28;20139;-80
2022/05/19 05:25:21;;;;;;;1.52;0.90;;;16.90;99.90;;;;;;5088737;28;20036;-80
2022/05/19 05:27:48;;;;;;;1.75;1.10;;;17.00;99.90;;;;;;5074713;28;20053;-81
2022/05/19 05:30:15;;;;;;;1.00;0.70;;;17.00;99.90;;;;;;5058826;28;20078;-81
2022/05/19 05:32:41;;;;;;;1.45;0.90;;;17.00;99.90;;;;;;5075343;28;20067;-80
2022/05/19 05:35:09;;;;;;;1.77;1.02;;;17.00;99.90;;;;;;5045955;28;20490;-81
2022/05/19 05:37:36;;;;;;;1.25;0.90;;;17.10;99.90;;;;;;5071220;28;20032;-80
2022/05/19 05:40:07;;;;;;;1.77;1.10;;;17.10;99.90;;;;;;5054636;28;20052;-81
2022/05/19 05:42:34;;;;;;;1.35;0.98;;;17.10;99.90;;;;;;5071271;28;20045;-81
2022/05/19 05:45:01;;;;;;;0.90;0.68;;;17.20;99.90;;;;;;5054542;28;20128;-81
2022/05/19 05:47:28;;;;;;;1.17;1.00;;;17.20;99.90;;;;;;5054356;28;20131;-80
2022/05/19 05:49:54;;;;;;;1.65;1.05;;;17.30;99.90;;;;;;5072946;28;20033;-80
2022/05/19 05:52:22;;;;;;;1.92;1.23;;;17.30;99.90;;;;;;5021904;28;20045;-80
2022/05/19 05:54:48;;;;;;;1.45;0.95;;;17.40;99.90;;;;;;5071103;28;20116;-80
2022/05/19 05:57:15;;;;;;;1.50;1.00;;;17.40;99.90;;;;;;5054391;28;20124;-80
2022/05/19 05:59:42;;;;;;;1.42;0.93;;;17.50;99.90;;;;;;5054397;28;20037;-79
2022/05/19 06:02:09;;;;;;;1.58;1.02;;;17.50;99.90;;;;;;5060217;28;20402;-80
2022/05/19 06:04:36;;;;;;;1.65;1.13;;;17.60;99.90;;;;;;5047544;28;20040;-80
2022/05/19 06:07:03;;;;;;;1.48;0.90;;;17.60;99.90;;;;;;5056527;28;20053;-80
2022/05/19 06:09:30;;;;;;;1.30;0.93;;;17.60;99.90;;;;;;5063852;28;20047;-80
2022/05/19 06:11:59;;;;;;;1.17;0.73;;;17.70;99.90;;;;;;5043354;28;20124;-81
2022/05/19 06:14:26;;;;;;;1.58;1.08;;;17.80;99.90;;;;;;5037968;28;20041;-80
2022/05/19 06:16:53;;;;;;;1.13;0.73;;;17.90;99.90;;;;;;5054770;28;20037;-81
2022/05/19 06:19:19;;;;;;;1.90;1.15;;;18.10;99.90;;;;;;5070356;28;20406;-80
2022/05/19 06:21:47;;;;;;;1.17;0.80;;;18.20;99.90;;;;;;5053909;28;20052;-80
2022/05/19 06:24:14;;;;;;;1.55;0.60;;;18.30;99.90;;;;;;5045961;28;20041;-80
2022/05/19 06:26:40;;;;;;;1.05;0.88;;;18.50;99.90;;;;;;5056824;28;20072;-81
2022/05/19 06:29:08;;;;;;;1.13;0.95;;;18.50;99.90;;;;;;5053615;28;20133;-80
2022/05/19 06:31:35;;;;;;;1.83;1.17;;;18.70;99.90;;;;;;5067852;28;20410;-80
2022/05/19 06:34:02;;;;;;;1.00;0.80;;;18.80;99.90;;;;;;5079288;28;20037;-80
2022/05/19 06:36:29;;;;;;;2.00;1.15;;;18.90;99.90;;;;;;5073580;28;20035;-80
2022/05/19 06:38:55;;;;;;;1.17;0.82;;;19.00;99.90;;;;;;5053641;28;20051;-80
2022/05/19 06:44:07;;;;;;;1.58;0.93;;;19.20;99.90;;;;;;5051383;28;20044;-80
2022/05/19 06:46:34;;;;;;;0.77;0.60;;;19.20;99.90;;;;;;5069954;28;20045;-80
2022/05/19 06:49:02;;;;;;;1.38;0.98;;;19.30;99.90;;;;;;5055030;28;20513;-79
2022/05/19 06:51:29;;;;;;;1.48;1.02;;;19.30;99.90;;;;;;5062842;28;20044;-80
2022/05/19 06:53:56;;;;;;;1.23;1.00;;;19.40;99.90;;;;;;5037285;28;20041;-80
2022/05/19 06:56:22;;;;;;;1.48;0.93;;;19.50;99.90;;;;;;5056690;28;20044;-82
2022/05/19 06:58:50;;;;;;;1.50;0.98;;;19.70;99.90;;;;;;5073152;28;20382;-81
2022/05/19 07:01:16;;;;;;;1.13;1.00;;;19.80;99.90;;;;;;5056906;28;20389;-81
2022/05/19 07:03:43;;;;;;;1.85;1.27;;;19.90;99.90;;;;;;5053105;28;20048;-80
2022/05/19 07:06:10;;;;;;;1.27;0.90;;;20.10;99.90;;;;;;5057219;28;20056;-81
2022/05/19 07:08:38;;;;;;;1.75;1.15;;;20.10;99.90;;;;;;5048085;28;20073;-78
2022/05/19 07:11:06;;;;;;;1.20;0.88;;;20.20;99.90;;;;;;5071538;28;20509;-78
2022/05/19 07:13:33;;;;;;;0.90;0.73;;;20.30;99.90;;;;;;5067968;28;20465;-80
2022/05/19 07:16:00;;;;;;;2.65;1.40;;;20.40;99.90;;;;;;5052365;28;20064;-80
2022/05/19 07:18:26;;;;;;;2.75;1.05;;;20.60;99.90;;;;;;5059780;28;20067;-80
2022/05/19 07:20:53;;;;;;;1.20;0.90;;;20.70;99.90;;;;;;5065489;28;20060;-78
2022/05/19 07:23:25;;;;;;;1.77;1.17;;;20.90;99.90;;;;;;5052072;28;20517;-79
2022/05/19 07:25:53;;;;;;;1.40;1.08;;;21.00;99.90;;;;;;5071097;28;20059;-78
2022/05/19 07:28:21;;;;;;;2.15;1.33;;;21.00;99.90;;;;;;5047943;28;20453;-78
2022/05/19 07:30:49;;;;;;;1.13;0.73;;;21.10;99.90;;;;;;5035299;28;20131;-79
2022/05/19 07:33:16;;;;;;;0.98;0.80;;;21.10;99.90;;;;;;5042501;28;20082;-78
2022/05/19 07:35:46;;;;;;;1.75;1.10;;;21.20;99.90;;;;;;5054753;28;20137;-80
2022/05/19 07:38:16;;;;;;;1.33;0.90;;;21.20;99.90;;;;;;5055183;28;20185;-78
2022/05/19 07:40:44;;;;;;;1.55;1.00;;;21.20;99.90;;;;;;5080728;28;20052;-78
2022/05/19 07:45:57;;;;;;;2.05;1.30;;;21.20;99.90;;;;;;5053739;28;20051;-80
2022/05/19 07:48:23;;;;;;;2.40;1.13;;;21.20;99.90;;;;;;5073613;28;20174;-78
2022/05/19 07:50:50;;;;;;;1.23;0.93;;;21.30;99.90;;;;;;5068978;28;20120;-78
2022/05/19 07:53:17;;;;;;;1.77;1.17;;;21.30;99.90;;;;;;5077909;28;20068;-78
2022/05/19 07:55:44;;;;;;;3.13;1.02;;;21.30;99.90;;;;;;5079727;28;20032;-78
2022/05/19 07:58:11;;;;;;;1.35;0.80;;;21.30;99.90;;;;;;5054958;28;20493;-80
2022/05/19 08:00:37;;;;;;;2.20;1.35;;;21.40;99.90;;;;;;5067758;28;20091;-78
2022/05/19 08:03:04;;;;;;;1.60;0.95;;;21.40;99.90;;;;;;5069676;28;20037;-80
2022/05/19 08:05:31;;;;;;;1.30;0.90;;;21.30;99.90;;;;;;5071676;28;20093;-80
2022/05/19 08:07:57;;;;;;;1.20;0.80;;;21.20;99.90;;;;;;5081165;28;20046;-79
2022/05/19 08:10:24;;;;;;;1.25;0.95;;;21.20;99.90;;;;;;5042549;28;20036;-80
2022/05/19 08:15:40;;;;;;;1.77;1.10;;;21.10;99.90;;;;;;5073824;28;20036;-80
2022/05/19 08:18:12;;;;;;;1.08;0.80;;;20.90;99.90;;;;;;5069034;28;20349;-79
2022/05/19 08:20:48;;;;;;;1.17;0.85;;;20.70;99.90;;;;;;5059660;28;20041;-80
2022/05/19 08:23:19;;;;;;;1.20;0.73;;;20.60;99.90;;;;;;5065333;28;20036;-78
2022/05/19 08:25:46;;;;;;;1.80;1.00;;;20.40;99.90;;;;;;5062573;28;20505;-80
2022/05/19 08:28:16;;;;;;;1.50;0.77;;;20.20;99.90;;;;;;5084535;28;20135;-80
2022/05/19 08:30:47;;;;;;;1.23;0.80;;;20.00;99.90;;;;;;5071230;28;20047;-79
2022/05/19 08:33:15;;;;;;;1.15;0.90;;;19.90;99.90;;;;;;5068035;28;20037;-79
2022/05/19 08:35:42;;;;;;;0.80;0.60;;;19.70;99.90;;;;;;5075876;28;20152;-80
2022/05/19 08:38:09;;;;;;;2.20;1.15;;;19.60;99.90;;;;;;5068397;28;20067;-79
2022/05/19 08:40:43;;;;;;;0.90;0.70;;;19.50;99.90;;;;;;5056024;28;20115;-79
2022/05/19 08:43:13;;;;;;;1.13;0.63;;;19.50;99.90;;;;;;5068244;28;20048;-79
2022/05/19 08:45:43;;;;;;;1.40;1.10;;;19.50;99.90;;;;;;5067605;28;20284;-80
2022/05/19 08:48:22;;;;;;;1.52;0.82;;;19.40;99.90;;;;;;5084876;28;20045;-79
2022/05/19 08:50:57;;;;;;;1.80;1.08;;;19.40;99.90;;;;;;5084751;28;20036;-79
2022/05/19 08:53:28;;;;;;;1.83;1.17;;;19.40;99.90;;;;;;5068418;28;20509;-80
2022/05/19 08:56:00;;;;;;;0.68;0.57;;;19.50;99.90;;;;;;5071639;28;20073;-80
2022/05/19 08:58:36;;;;;;;1.05;0.80;;;19.50;99.90;;;;;;5065704;28;20123;-80
2022/05/19 09:01:11;;;;;;;1.27;1.05;;;19.50;99.90;;;;;;5074938;28;20051;-79
2022/05/19 09:03:47;;;;;;;1.42;0.93;;;19.60;99.90;;;;;;5071272;28;20052;-80
2022/05/19 09:07:56;;;;;;;1.70;1.27;;;19.60;99.90;;;;;;5083229;28;20043;-80
2022/05/19 09:09:49;;;;;;;1.42;1.05;;;19.50;99.90;;;;;;5102493;28;20048;-79
2022/05/19 09:12:20;;;;;;;1.40;1.00;;;19.50;99.90;;;;;;5074631;28;20037;-79
2022/05/19 09:14:47;;;;;;;1.77;1.13;;;19.50;99.90;;;;;;5069032;28;20041;-80
2022/05/19 09:17:14;;;;;;;0.98;0.70;;;19.50;99.90;;;;;;5052492;28;20048;-79
2022/05/19 09:19:49;;;;;;;1.63;1.17;;;19.50;99.90;;;;;;5071671;28;20398;-79
2022/05/19 09:22:19;;;;;;;1.75;1.17;;;19.60;99.90;;;;;;5077562;28;20512;-79
2022/05/19 09:24:48;;;;;;;1.75;1.30;;;19.60;99.90;;;;;;5068346;28;20040;-80
2022/05/19 09:27:16;;;;;;;1.60;1.08;;;19.70;99.90;;;;;;5091084;28;20044;-81
2022/05/19 09:29:46;;;;;;;1.60;0.90;;;19.70;99.90;;;;;;5072470;28;20076;-80
2022/05/19 09:32:16;;;;;;;1.50;1.10;;;19.80;99.90;;;;;;5079449;28;20036;-80
2022/05/19 09:34:48;;;;;;;1.40;1.00;;;19.80;99.90;;;;;;5059671;28;20079;-79
2022/05/19 09:37:28;;;;;;;2.03;1.38;;;19.90;99.90;;;;;;5072636;28;20037;-79
2022/05/19 09:40:10;;;;;;;2.03;1.40;;;19.90;99.90;;;;;;5088138;28;20087;-79
2022/05/19 09:43:18;;;;;;;2.28;1.33;;;20.00;99.90;;;;;;5072198;28;20043;-80
2022/05/19 09:45:47;;;;;;;1.85;1.25;;;20.10;99.90;;;;;;5065463;28;20049;-80
2022/05/19 09:48:19;;;;;;;1.95;1.20;;;20.20;99.90;;;;;;5076515;28;20072;-80
2022/05/19 09:50:48;;;;;;;2.35;1.60;;;20.30;99.90;;;;;;5059744;28;20041;-80
2022/05/19 09:53:21;;;;;;;1.27;0.98;;;20.50;99.90;;;;;;5071291;28;20029;-80
2022/05/19 09:55:55;;;;;;;2.15;1.23;;;20.50;99.90;;;;;;5067859;28;20422;-79
2022/05/19 09:58:26;;;;;;;1.48;1.15;;;20.60;99.90;;;;;;5085602;28;20123;-80
2022/05/19 10:00:57;;;;;;;1.42;1.05;;;20.70;99.90;;;;;;5087332;28;20524;-79
2022/05/19 10:03:33;;;;;;;2.42;1.60;;;20.80;99.90;;;;;;5085243;28;20389;-80
2022/05/19 10:06:24;;;;;;;2.53;1.45;;;20.80;99.90;;;;;;5062774;28;20045;-79
2022/05/19 10:09:00;;;;;;;1.67;1.25;;;21.00;99.90;;;;;;5074763;28;20076;-80
2022/05/19 10:11:29;;;;;;;2.13;1.40;;;21.10;99.90;;;;;;5067009;28;20025;-80
2022/05/19 10:14:02;;;;;;;2.13;1.40;;;21.10;99.90;;;;;;5080417;28;20044;-80
2022/05/19 10:16:44;;;;;;;1.67;1.13;;;21.20;99.90;;;;;;5089802;28;20183;-80
2022/05/19 10:19:29;;;;;;;2.45;1.35;;;21.30;99.90;;;;;;5070688;28;20043;-81
2022/05/19 10:22:25;;;;;;;2.03;1.30;;;21.30;99.90;;;;;;5074877;28;20041;-81
2022/05/19 10:25:26;;;;;;;2.45;1.50;;;21.50;99.90;;;;;;5072054;28;20367;-80
2022/05/19 10:31:25;;;;;;;2.47;1.77;;;21.70;99.90;;;;;;5077145;28;20494;-79
2022/05/19 10:34:10;;;;;;;1.70;1.30;;;21.80;99.90;;;;;;5081846;28;20039;-79
2022/05/19 10:36:46;;;;;;;1.77;1.10;;;21.90;99.90;;;;;;5062090;28;20045;-80
2022/05/19 10:39:31;;;;;;;1.77;1.13;;;22.00;99.90;;;;;;5069212;28;20056;-78
2022/05/19 10:42:45;;;;;;;2.22;1.30;;;22.10;99.90;;;;;;5061734;28;20068;-80
2022/05/19 10:45:23;;;;;;;1.70;1.00;;;22.10;99.90;;;;;;5046746;28;20049;-79
2022/05/19 10:48:10;;;;;;;1.88;1.23;;;22.10;99.90;;;;;;5077547;28;20039;-80
2022/05/19 10:50:52;;;;;;;2.10;1.23;;;22.00;99.90;;;;;;5030808;28;20136;-79
2022/05/19 10:53:19;;;;;;;1.38;1.00;;;22.00;99.90;;;;;;5068738;28;20041;-79
2022/05/19 10:55:57;;;;;;;1.58;1.15;;;21.90;99.90;;;;;;5073246;28;20048;-79
2022/05/19 10:58:53;;;;;;;1.63;1.10;;;21.80;99.90;;;;;;5061811;28;20041;-81
2022/05/19 11:01:41;;;;;;;1.75;1.17;;;21.80;99.90;;;;;;5035048;28;20044;-79
2022/05/19 11:04:36;;;;;;;1.67;1.20;;;21.80;99.90;;;;;;5071971;28;20040;-81
2022/05/19 11:07:57;;;;;;;2.60;1.75;;;21.90;99.90;;;;;;5069563;28;20045;-80
2022/05/19 11:10:35;;;;;;;2.35;1.52;;;22.30;99.90;;;;;;5013630;28;20062;-79
2022/05/19 11:13:26;;;;;;;1.65;1.20;;;22.80;99.90;;;;;;5064406;28;20516;-79
2022/05/19 11:16:11;;;;;;;2.85;1.60;;;23.10;99.90;;;;;;5068122;28;20543;-80
2022/05/19 11:18:57;;;;;;;;;;;23.40;99.90;;;;;;5053961;28;20029;-79
2022/05/19 11:21:37;;;;;;;2.28;1.38;;;23.70;99.90;;;;;;5073642;28;19999;-80
2022/05/19 11:24:22;;;;;;;2.20;1.45;;;23.80;99.90;;;;;;5088239;28;20506;-79
2022/05/19 11:27:15;;;;;;;2.35;1.27;;;23.90;99.90;;;;;;5071849;28;20043;-79
2022/05/19 11:30:07;;;;;;;2.40;1.60;;;24.00;99.90;;;;;;5071011;28;20815;-81
2022/05/19 11:32:38;;;;;;;2.38;1.40;;;24.20;99.90;;;;;;5080228;28;20048;-81
2022/05/19 11:35:13;;;;;;;1.95;1.42;;;24.10;99.90;;;;;;5071943;28;20105;-79
2022/05/19 11:37:59;;;;;;;2.25;1.45;;;24.10;99.90;;;;;;5072040;28;20039;-82
2022/05/19 11:40:32;;;;;;;1.73;1.17;;;24.20;99.90;;;;;;5065302;28;20025;-78
2022/05/19 11:42:58;;;;;;;2.55;1.58;;;24.30;99.90;;;;;;5086565;28;20476;-79
2022/05/19 11:45:48;;;;;;;2.53;1.55;;;24.40;99.90;;;;;;5081424;28;20070;-79
2022/05/19 11:57:39;;;;;;;;;;;24.60;99.90;;;;;;5074888;28;20052;-81
2022/05/19 12:00:08;;;;;;;1.88;1.20;;;24.70;99.90;;;;;;5084216;28;19924;-81
2022/05/19 12:02:59;;;;;;;1.85;1.10;;;24.90;99.90;;;;;;5071774;28;20045;-81
2022/05/19 12:05:28;;;;;;;1.48;1.00;;;25.00;99.90;;;;;;5089904;28;20041;-79
2022/05/19 12:08:05;;;;;;;3.08;1.55;;;25.30;99.90;;;;;;5070865;28;20054;-79
2022/05/19 12:10:37;;;;;;;1.95;1.08;;;25.40;99.90;;;;;;5078383;28;20494;-79
2022/05/19 12:13:05;;;;;;;1.40;0.88;;;25.70;99.90;;;;;;5074123;28;20040;-80
2022/05/19 12:15:48;;;;;;;1.85;1.33;;;25.80;99.90;;;;;;5081647;28;20158;-79
2022/05/19 12:18:24;;;;;;;1.60;1.10;;;25.80;99.90;;;;;;5087897;28;20040;-81
2022/05/19 12:20:59;;;;;;;1.63;1.05;;;25.70;99.90;;;;;;5071058;28;20044;-79
2022/05/19 12:23:31;;;;;;;1.25;0.98;;;25.70;99.90;;;;;;5087800;28;20520;-81
2022/05/19 12:26:17;;;;;;;1.23;0.90;;;25.60;99.90;;;;;;5070915;28;20793;-79
2022/05/19 12:28:57;;;;;;;1.85;1.02;;;25.60;99.90;;;;;;5088484;28;20048;-79
2022/05/19 12:34:30;;;;;;;0.90;0.68;;;25.60;99.90;;;;;;5077374;28;20048;-81
2022/05/19 12:37:34;;;;;;;0.80;0.60;;;25.70;99.90;;;;;;5067679;28;20187;-81
2022/05/19 12:40:38;;;;;;;1.00;0.52;;;25.70;99.90;;;;;;5071541;28;20395;-79
2022/05/19 12:43:10;;;;;;;0.98;0.60;;;25.60;99.90;;;;;;5057575;28;20045;-87
2022/05/19 12:45:50;;;;;;;0.85;0.50;;;25.50;99.90;;;;;;5075060;28;20119;-80
2022/05/19 12:48:20;;;;;;;0.88;0.60;;;25.40;99.90;;;;;;5075448;28;20048;-80
2022/05/19 12:51:15;;;;;;;1.00;0.70;;;25.40;99.90;;;;;;5075501;28;20072;-82
2022/05/19 12:53:51;;;;;;;1.45;0.70;;;25.30;99.90;;;;;;5074458;28;20401;-80
2022/05/19 12:56:40;;;;;;;0.57;0.50;;;25.20;99.90;;;;;;5074464;28;20507;-82
2022/05/19 12:59:27;;;;;;;1.35;0.80;;;25.00;99.90;;;;;;5075148;28;20072;-80
2022/05/19 13:02:04;;;;;;;1.63;0.70;;;24.90;99.90;;;;;;5076259;28;20049;-80
2022/05/19 13:04:42;;;;;;;0.65;0.50;;;24.80;99.90;;;;;;5073304;28;20071;-79
2022/05/19 13:07:24;;;;;;;0.55;0.55;;;24.70;99.90;;;;;;5074400;28;20459;-80
2022/05/19 13:10:05;;;;;;;0.70;0.50;;;24.60;99.90;;;;;;5091579;28;20037;-81
2022/05/19 13:12:48;;;;;;;0.73;0.50;;;24.50;99.90;;;;;;5075133;28;20036;-80
2022/05/19 13:15:27;;;;;;;0.40;0.40;;;24.40;99.90;;;;;;5073018;28;20071;-81
2022/05/19 13:17:56;;;;;;;1.17;0.70;;;24.30;99.90;;;;;;5075298;28;20040;-80
2022/05/19 13:20:32;;;;;;;0.55;0.45;;;24.20;99.90;;;;;;5091128;28;20048;-80
2022/05/19 13:23:04;;;;;;;1.23;0.70;;;24.10;99.90;;;;;;5075235;28;20083;-84
2022/05/19 13:25:34;;;;;;;0.38;0.38;;;23.90;99.90;;;;;;5057089;28;20120;-83
2022/05/19 13:30:55;;;;;;;1.20;0.63;;;23.70;99.90;;;;;;5071346;28;20533;-82
2022/05/19 13:33:25;;;;;;;1.35;0.77;;;23.60;99.90;;;;;;5059328;28;20037;-82
2022/05/19 13:36:04;;;;;;;1.38;0.80;;;23.40;99.90;;;;;;5077203;28;20088;-82
2022/05/19 13:38:31;;;;;;;1.33;0.82;;;23.20;99.90;;;;;;5068471;28;20115;-82
2022/05/19 13:40:58;;;;;;;1.00;0.70;;;23.00;99.90;;;;;;5063947;28;20095;-80
2022/05/19 13:43:37;;;;;;;1.17;0.75;;;22.80;99.90;;;;;;5054638;28;20036;-84